createdAt,value
2018-09-12T00:02:00.185Z,96694.91
2018-09-12T00:04:31.371Z,96694.80
2018-09-12T00:07:00.684Z,96689.69
2018-09-12T00:09:30.590Z,96686.72
2018-09-12T00:12:00.022Z,96684.84
2018-09-12T00:14:31.437Z,96680.59
2018-09-12T00:17:01.373Z,96679.97
2018-09-12T00:19:30.663Z,96676.44
2018-09-12T00:22:01.557Z,96671.52
2018-09-12T00:24:31.543Z,96668.34
2018-09-12T00:27:00.887Z,96665.44
2018-09-12T00:29:30.695Z,96664.12
2018-09-12T00:31:59.987Z,96662.50
2018-09-12T00:34:29.340Z,96658.52
2018-09-12T00:36:58.695Z,96658.78
2018-09-12T00:39:27.999Z,96651.97
2018-09-12T00:41:57.329Z,96653.06
2018-09-12T00:44:27.103Z,96649.06
2018-09-12T00:46:56.425Z,96649.90
2018-09-12T00:49:26.375Z,96647.75
2018-09-12T00:51:55.697Z,96647.52
2018-09-12T00:54:25.527Z,96650.72
2018-09-12T00:56:54.831Z,96648.83
2018-09-12T00:59:24.176Z,96649.95
2018-09-12T01:01:53.494Z,96645.66
2018-09-12T01:04:22.880Z,96638.11
2018-09-12T01:06:52.685Z,96631.41
2018-09-12T01:09:22.464Z,96629.75
2018-09-12T01:11:55.156Z,96629.47
2018-09-12T01:14:29.079Z,96622.78
2018-09-12T01:16:58.567Z,96625.24
2018-09-12T01:19:28.423Z,96624.48
2018-09-12T01:22:00.549Z,96625.30
2018-09-12T01:27:24.068Z,96622.15
2018-09-12T01:29:53.412Z,96614.66
2018-09-12T01:32:23.841Z,96614.67
2018-09-12T01:34:54.161Z,96609.84
2018-09-12T01:37:23.459Z,96609.37
2018-09-12T01:39:52.773Z,96616.70
2018-09-12T01:42:22.507Z,96619.09
2018-09-12T01:44:51.789Z,96615.63
2018-09-12T01:47:21.103Z,96619.89
2018-09-12T01:49:50.416Z,96619.35
2018-09-12T01:52:19.801Z,96614.75
2018-09-12T01:54:49.096Z,96610.44
2018-09-12T01:57:18.886Z,96606.59
2018-09-12T01:59:48.187Z,96608.78
2018-09-12T02:02:20.611Z,96609.05
2018-09-12T02:04:51.117Z,96606.82
2018-09-12T02:07:20.442Z,96610.27
2018-09-12T02:09:50.551Z,96613.52
2018-09-12T02:12:19.871Z,96607.24
2018-09-12T02:14:50.134Z,96606.78
2018-09-12T02:17:21.291Z,96609.80
2018-09-12T02:19:51.193Z,96603.66
2018-09-12T02:22:20.563Z,96604.10
2018-09-12T02:24:49.918Z,96607.06
2018-09-12T02:27:20.563Z,96598.72
2018-09-12T02:29:50.918Z,96601.40
2018-09-12T02:32:21.687Z,96597.44
2018-09-12T02:34:50.987Z,96598.55
2018-09-12T02:37:20.296Z,96599.89
2018-09-12T02:39:49.699Z,96593.16
2018-09-12T02:42:19.064Z,96598.91
2018-09-12T02:44:48.456Z,96603.48
2018-09-12T02:47:23.240Z,96596.98
2018-09-12T02:49:53.401Z,96588.17
2018-09-12T02:52:24.895Z,96593.55
2018-09-12T02:55:06.350Z,96594.09
2018-09-12T02:57:35.685Z,96583.91
2018-09-12T03:02:42.014Z,96585.80
2018-09-12T03:05:11.342Z,96589.41
2018-09-12T03:07:40.756Z,96586.03
2018-09-12T03:10:11.060Z,96581.28
2018-09-12T03:12:40.779Z,96579.83
2018-09-12T03:15:10.079Z,96579.66
2018-09-12T03:17:39.366Z,96576.20
2018-09-12T03:20:08.773Z,96571.21
2018-09-12T03:22:38.238Z,96574.27
2018-09-12T03:25:07.811Z,96571.66
2018-09-12T03:27:37.644Z,96561.69
2018-09-12T03:30:07.484Z,96555.20
2018-09-12T03:32:36.811Z,96566.89
2018-09-12T03:35:06.488Z,96566.67
2018-09-12T03:37:36.253Z,96567.08
2018-09-12T03:40:05.719Z,96567.96
2018-09-12T03:42:35.009Z,96567.22
2018-09-12T03:45:04.851Z,96568.85
2018-09-12T03:47:34.771Z,96563.25
2018-09-12T03:50:04.162Z,96564.11
2018-09-12T03:52:33.471Z,96562.01
2018-09-12T03:55:02.768Z,96564.21
2018-09-12T03:57:32.474Z,96565.88
2018-09-12T04:00:02.562Z,96564.30
2018-09-12T04:02:31.868Z,96563.50
2018-09-12T04:05:01.167Z,96561.34
2018-09-12T04:07:30.484Z,96565.83
2018-09-12T04:10:00.431Z,96555.75
2018-09-12T04:12:30.155Z,96558.97
2018-09-12T04:14:59.527Z,96556.99
2018-09-12T04:17:36.510Z,96553.42
2018-09-12T04:20:06.892Z,96557.72
2018-09-12T04:22:37.168Z,96566.09
2018-09-12T04:25:06.584Z,96574.02
2018-09-12T04:27:38.158Z,96569.51
2018-09-12T04:30:08.035Z,96571.17
2018-09-12T04:32:37.475Z,96568.03
2018-09-12T04:35:07.753Z,96570.50
2018-09-12T04:40:59.378Z,96574.27
2018-09-12T04:43:31.683Z,96563.80
2018-09-12T04:46:09.090Z,96567.03
2018-09-12T04:48:38.541Z,96566.23
2018-09-12T04:51:07.759Z,96568.39
2018-09-12T04:53:37.062Z,96563.00
2018-09-12T04:56:06.861Z,96563.03
2018-09-12T04:58:36.227Z,96564.14
2018-09-12T05:01:05.948Z,96564.95
2018-09-12T05:03:35.291Z,96566.03
2018-09-12T05:06:04.828Z,96558.48
2018-09-12T05:15:18.041Z,96559.30
2018-09-12T05:18:12.043Z,96553.10
2018-09-12T05:20:42.910Z,96559.84
2018-09-12T05:23:14.308Z,96555.77
2018-09-12T05:25:46.318Z,96549.30
2018-09-12T05:28:16.642Z,96552.50
2018-09-12T05:30:46.492Z,96551.42
2018-09-12T05:33:17.375Z,96541.41
2018-09-12T05:35:47.987Z,96542.13
2018-09-12T05:38:17.399Z,96538.77
2018-09-12T05:40:46.901Z,96542.97
2018-09-12T05:43:17.748Z,96537.22
2018-09-12T05:45:48.179Z,96535.27
2018-09-12T05:48:19.404Z,96541.97
2018-09-12T05:50:48.697Z,96541.64
2018-09-12T05:53:21.144Z,96538.63
2018-09-12T05:55:50.469Z,96537.97
2018-09-12T05:58:19.824Z,96527.81
2018-09-12T06:00:49.129Z,96524.94
2018-09-12T06:03:19.012Z,96520.48
2018-09-12T06:05:48.346Z,96518.84
2018-09-12T06:08:18.443Z,96519.24
2018-09-12T06:10:53.981Z,96516.06
2018-09-12T06:13:23.551Z,96517.05
2018-09-12T06:15:54.203Z,96515.00
2018-09-12T06:18:25.728Z,96513.85
2018-09-12T06:21:01.370Z,96524.53
2018-09-12T06:23:32.074Z,96512.84
2018-09-12T06:26:04.383Z,96512.67
2018-09-12T06:28:34.404Z,96515.52
2018-09-12T06:31:07.541Z,96510.56
2018-09-12T06:33:38.859Z,96518.06
2018-09-12T06:36:09.841Z,96510.70
2018-09-12T06:38:39.660Z,96506.77
2018-09-12T06:41:15.663Z,96509.34
2018-09-12T06:43:45.218Z,96508.97
2018-09-12T06:46:15.254Z,96514.02
2018-09-12T06:48:46.970Z,96508.15
2018-09-12T06:51:16.376Z,96503.21
2018-09-12T06:53:45.823Z,96505.56
2018-09-12T06:56:18.518Z,96509.89
2018-09-12T06:58:48.676Z,96510.45
2018-09-12T07:01:18.989Z,96507.12
2018-09-12T07:03:50.515Z,96514.42
2018-09-12T07:06:20.540Z,96519.85
2018-09-12T07:08:50.539Z,96511.65
2018-09-12T07:11:20.249Z,96509.89
2018-09-12T07:13:49.515Z,96509.31
2018-09-12T07:16:20.263Z,96505.25
2018-09-12T07:18:52.982Z,96509.66
2018-09-12T07:21:25.995Z,96506.80
2018-09-12T07:23:55.328Z,96510.22
2018-09-12T07:26:24.658Z,96512.35
2018-09-12T07:28:55.903Z,96516.73
2018-09-12T07:31:25.704Z,96520.02
2018-09-12T07:33:56.499Z,96525.67
2018-09-12T07:36:27.067Z,96531.61
2018-09-12T07:38:57.238Z,96528.27
2018-09-12T07:41:27.423Z,96531.80
2018-09-12T07:43:56.838Z,96529.98
2018-09-12T07:46:26.125Z,96540.52
2018-09-12T07:48:57.060Z,96531.20
2018-09-12T07:51:26.373Z,96535.95
2018-09-12T07:53:55.703Z,96536.21
2018-09-12T07:56:26.024Z,96535.80
2018-09-12T08:02:27.436Z,96539.81
2018-09-12T08:04:56.831Z,96546.07
2018-09-12T08:07:26.523Z,96541.73
2018-09-12T08:09:56.277Z,96538.28
2018-09-12T08:12:27.244Z,96539.56
2018-09-12T08:14:57.652Z,96541.49
2018-09-12T08:17:29.186Z,96536.77
2018-09-12T08:20:00.554Z,96543.20
2018-09-12T08:22:29.839Z,96544.53
2018-09-12T08:25:01.506Z,96560.32
2018-09-12T08:27:46.165Z,96555.19
2018-09-12T08:30:23.479Z,96553.58
2018-09-12T08:35:58.976Z,96547.85
2018-09-12T08:38:29.312Z,96552.98
2018-09-12T08:41:00.463Z,96543.81
2018-09-12T08:43:33.443Z,96541.38
2018-09-12T08:46:03.743Z,96534.80
2018-09-12T08:48:35.319Z,96533.78
2018-09-12T08:51:05.848Z,96530.41
2018-09-12T08:53:36.147Z,96529.33
2018-09-12T08:56:06.558Z,96535.56
2018-09-12T08:58:35.844Z,96537.39
2018-09-12T09:01:08.333Z,96530.35
2018-09-12T09:03:38.142Z,96532.97
2018-09-12T09:06:09.240Z,96525.59
2018-09-12T09:08:39.202Z,96530.67
2018-09-12T09:11:08.546Z,96527.38
2018-09-12T09:13:39.007Z,96524.59
2018-09-12T09:16:08.861Z,96522.09
2018-09-12T09:18:38.429Z,96539.75
2018-09-12T09:21:08.590Z,96534.59
2018-09-12T09:23:40.535Z,96537.98
2018-09-12T09:26:11.431Z,96538.56
2018-09-12T09:28:41.571Z,96539.73
2018-09-12T09:31:12.980Z,96534.92
2018-09-12T09:33:43.716Z,96530.83
2018-09-12T09:36:14.692Z,96539.97
2018-09-12T09:38:44.074Z,96538.84
2018-09-12T09:41:13.376Z,96540.13
2018-09-12T09:43:44.293Z,96540.27
2018-09-12T09:46:14.286Z,96533.16
2018-09-12T09:48:44.277Z,96533.02
2018-09-12T09:51:13.934Z,96525.08
2018-09-12T09:53:43.348Z,96524.27
2018-09-12T09:56:14.320Z,96526.31
2018-09-12T09:58:48.975Z,96520.63
2018-09-12T10:01:23.357Z,96517.77
2018-09-12T10:03:58.403Z,96522.91
2018-09-12T10:06:34.815Z,96521.09
2018-09-12T10:12:38.212Z,96524.16
2018-09-12T10:15:07.858Z,96509.66
2018-09-12T10:17:37.538Z,96509.89
2018-09-12T10:20:07.428Z,96494.61
2018-09-12T10:22:37.674Z,96499.39
2018-09-12T10:25:08.372Z,96493.94
2018-09-12T10:27:37.729Z,96499.39
2018-09-12T10:30:13.672Z,96492.20
2018-09-12T10:32:43.927Z,96493.66
2018-09-12T10:35:13.245Z,96500.83
2018-09-12T10:37:42.563Z,96497.77
2018-09-12T10:40:12.985Z,96492.75
2018-09-12T10:42:42.904Z,96495.80
2018-09-12T10:45:12.207Z,96498.12
2018-09-12T10:47:42.476Z,96508.36
2018-09-12T10:50:14.371Z,96498.43
2018-09-12T10:52:44.831Z,96500.69
2018-09-12T10:55:16.115Z,96494.03
2018-09-12T10:57:45.452Z,96496.63
2018-09-12T11:00:16.504Z,96495.46
2018-09-12T11:02:48.010Z,96488.72
2018-09-12T11:05:18.635Z,96486.04
2018-09-12T11:07:49.742Z,96486.61
2018-09-12T11:10:23.227Z,96477.30
2018-09-12T11:12:54.414Z,96478.80
2018-09-12T11:15:24.576Z,96478.96
2018-09-12T11:17:53.947Z,96466.66
2018-09-12T11:20:23.275Z,96477.47
2018-09-12T11:22:53.543Z,96462.52
2018-09-12T11:25:24.288Z,96474.69
2018-09-12T11:27:58.032Z,96473.53
2018-09-12T11:30:29.137Z,96468.02
2018-09-12T11:32:58.598Z,96462.59
2018-09-12T11:35:28.248Z,96454.61
2018-09-12T11:48:01.319Z,96448.95
2018-09-12T11:50:31.552Z,96446.34
2018-09-12T11:53:03.091Z,96449.41
2018-09-12T11:55:33.409Z,96431.27
2018-09-12T11:58:02.738Z,96435.62
2018-09-12T12:00:34.379Z,96433.52
2018-09-12T12:03:04.384Z,96446.69
2018-09-12T12:05:33.733Z,96442.02
2018-09-12T12:08:04.562Z,96439.59
2018-09-12T12:10:33.880Z,96432.41
2018-09-12T12:13:03.641Z,96435.61
2018-09-12T12:15:33.482Z,96434.96
2018-09-12T12:18:03.613Z,96432.77
2018-09-12T12:20:34.802Z,96429.60
2018-09-12T12:23:05.440Z,96412.94
2018-09-12T12:25:34.690Z,96426.61
2018-09-12T12:28:04.282Z,96412.81
2018-09-12T12:30:33.697Z,96411.92
2018-09-12T12:33:11.603Z,96408.98
2018-09-12T12:35:42.424Z,96406.23
2018-09-12T12:38:13.280Z,96394.09
2018-09-12T12:41:03.549Z,96404.11
2018-09-12T12:43:40.134Z,96395.34
2018-09-12T12:46:10.412Z,96402.18
2018-09-12T12:48:40.367Z,96398.92
2018-09-12T12:51:09.763Z,96393.54
2018-09-12T12:53:39.152Z,96384.77
2018-09-12T12:56:09.279Z,96385.59
2018-09-12T12:58:39.749Z,96385.56
2018-09-12T13:01:09.915Z,96379.39
2018-09-12T13:03:39.287Z,96377.89
2018-09-12T13:06:08.996Z,96369.01
2018-09-12T13:08:38.320Z,96373.06
2018-09-12T13:11:08.885Z,96371.92
2018-09-12T13:13:38.261Z,96375.08
2018-09-12T13:16:08.219Z,96362.79
2018-09-12T13:18:37.854Z,96360.06
2018-09-12T13:21:07.464Z,96349.97
2018-09-12T13:23:38.112Z,96352.91
2018-09-12T13:26:07.962Z,96348.44
2018-09-12T13:28:37.838Z,96350.25
2018-09-12T13:31:09.851Z,96355.66
2018-09-12T13:33:39.952Z,96354.02
2018-09-12T13:36:12.689Z,96354.29
2018-09-12T13:38:43.739Z,96358.05
2018-09-12T13:41:13.063Z,96349.11
2018-09-12T13:43:42.350Z,96347.16
2018-09-12T13:46:12.318Z,96352.30
2018-09-12T13:48:42.998Z,96350.56
2018-09-12T13:51:12.365Z,96339.94
2018-09-12T13:53:42.697Z,96351.94
2018-09-12T13:56:14.769Z,96339.63
2018-09-12T13:58:44.115Z,96336.25
2018-09-12T14:01:13.474Z,96333.20
2018-09-12T14:03:44.317Z,96333.06
2018-09-12T14:06:14.321Z,96325.41
2018-09-12T14:08:44.618Z,96325.63
2018-09-12T14:11:14.844Z,96323.59
2018-09-12T14:13:44.342Z,96323.25
2018-09-12T14:16:14.582Z,96316.66
2018-09-12T14:18:44.351Z,96324.10
2018-09-12T14:21:16.704Z,96319.84
2018-09-12T14:23:46.089Z,96313.05
2018-09-12T14:26:18.644Z,96320.13
2018-09-12T14:28:48.802Z,96317.58
2018-09-12T14:31:19.842Z,96314.01
2018-09-12T14:33:49.532Z,96319.48
2018-09-12T14:36:19.473Z,96310.70
2018-09-12T14:38:48.757Z,96311.06
2018-09-12T14:41:19.400Z,96311.27
2018-09-12T14:43:48.750Z,96307.83
2018-09-12T14:46:18.894Z,96302.98
2018-09-12T14:48:49.127Z,96297.70
2018-09-12T14:51:19.693Z,96298.60
2018-09-12T14:53:49.007Z,96294.98
2018-09-12T14:56:20.091Z,96291.40
2018-09-12T14:58:51.482Z,96287.23
2018-09-12T15:01:24.470Z,96290.31
2018-09-12T15:03:56.333Z,96287.38
2018-09-12T15:06:25.656Z,96291.36
2018-09-12T15:08:55.820Z,96281.08
2018-09-12T15:11:26.102Z,96289.19
2018-09-12T15:13:57.879Z,96284.09
2018-09-12T15:16:27.200Z,96285.36
2018-09-12T15:18:56.840Z,96276.89
2018-09-12T15:21:26.439Z,96281.20
2018-09-12T15:23:55.766Z,96279.25
2018-09-12T15:26:27.104Z,96280.05
2018-09-12T15:28:57.900Z,96274.93
2018-09-12T15:31:27.231Z,96273.36
2018-09-12T15:33:56.557Z,96277.81
2018-09-12T15:36:26.907Z,96272.98
2018-09-12T15:38:57.287Z,96273.48
2018-09-12T15:41:28.016Z,96272.99
2018-09-12T15:43:57.378Z,96269.94
2018-09-12T15:46:26.795Z,96274.50
2018-09-12T15:48:56.798Z,96273.48
2018-09-12T15:51:26.131Z,96270.73
2018-09-12T15:53:55.819Z,96269.22
2018-09-12T15:56:27.972Z,96271.48
2018-09-12T15:58:58.763Z,96273.86
2018-09-12T16:01:33.105Z,96270.39
2018-09-12T16:04:02.403Z,96266.97
2018-09-12T16:06:31.711Z,96266.95
2018-09-12T16:09:01.372Z,96261.39
2018-09-12T16:11:32.979Z,96267.14
2018-09-12T16:14:02.259Z,96258.91
2018-09-12T16:16:33.181Z,96263.38
2018-09-12T16:19:04.076Z,96258.18
2018-09-12T16:21:34.439Z,96258.87
2018-09-12T16:24:04.388Z,96264.02
2018-09-12T16:26:34.500Z,96253.08
2018-09-12T16:29:06.626Z,96253.42
2018-09-12T16:31:36.035Z,96253.31
2018-09-12T16:34:07.362Z,96261.84
2018-09-12T16:36:39.621Z,96259.27
2018-09-12T16:39:15.027Z,96253.17
2018-09-12T16:41:46.691Z,96247.96
2018-09-12T16:44:17.335Z,96255.36
2018-09-12T16:46:49.292Z,96251.86
2018-09-12T16:49:19.515Z,96250.31
2018-09-12T16:51:51.599Z,96255.71
2018-09-12T16:54:20.890Z,96256.77
2018-09-12T16:56:50.822Z,96253.38
2018-09-12T16:59:20.563Z,96251.25
2018-09-12T17:01:52.537Z,96251.28
2018-09-12T17:04:22.825Z,96256.86
2018-09-12T17:06:54.023Z,96254.67
2018-09-12T17:09:31.343Z,96254.23
2018-09-12T17:12:05.635Z,96258.98
2018-09-12T17:14:36.562Z,96249.63
2018-09-12T17:17:06.530Z,96254.61
2018-09-12T17:19:38.266Z,96247.34
2018-09-12T17:22:10.075Z,96245.59
2018-09-12T17:24:40.029Z,96250.76
2018-09-12T17:27:10.087Z,96252.53
2018-09-12T17:29:48.203Z,96257.38
2018-09-12T17:32:22.023Z,96255.38
2018-09-12T17:35:00.836Z,96257.75
2018-09-12T17:41:07.866Z,96258.22
2018-09-12T17:43:38.258Z,96248.26
2018-09-12T17:46:09.379Z,96256.48
2018-09-12T17:48:40.295Z,96261.33
2018-09-12T17:51:10.122Z,96263.91
2018-09-12T17:53:41.206Z,96260.52
2018-09-12T17:56:11.793Z,96266.64
2018-09-12T17:58:42.555Z,96260.18
2018-09-12T18:01:14.282Z,96266.22
2018-09-12T18:03:43.596Z,96262.47
2018-09-12T18:06:13.639Z,96263.67
2018-09-12T18:08:57.967Z,96267.48
2018-09-12T18:11:34.410Z,96269.41
2018-09-12T18:14:06.995Z,96271.33
2018-09-12T18:16:39.794Z,96276.20
2018-09-12T18:19:12.471Z,96287.55
2018-09-12T18:21:55.245Z,96281.37
2018-09-12T18:24:26.031Z,96292.48
2018-09-12T18:26:58.827Z,96289.41
2018-09-12T18:29:28.231Z,96292.41
2018-09-12T18:31:58.254Z,96287.76
2018-09-12T18:34:27.571Z,96287.14
2018-09-12T18:36:58.249Z,96288.39
2018-09-12T18:39:29.519Z,96284.69
2018-09-12T18:41:59.084Z,96280.18
2018-09-12T18:44:29.724Z,96283.30
2018-09-12T18:47:00.026Z,96288.94
2018-09-12T18:49:29.383Z,96288.09
2018-09-12T18:52:04.200Z,96289.26
2018-09-12T18:54:33.857Z,96295.30
2018-09-12T18:57:03.247Z,96299.56
2018-09-12T18:59:32.603Z,96299.47
2018-09-12T19:02:01.935Z,96291.94
2018-09-12T19:04:35.978Z,96296.70
2018-09-12T19:07:06.630Z,96292.25
2018-09-12T19:09:37.347Z,96295.15
2018-09-12T19:12:08.264Z,96291.50
2018-09-12T19:14:39.842Z,96294.87
2018-09-12T19:17:17.257Z,96300.17
2018-09-12T19:19:48.963Z,96294.09
2018-09-12T19:22:20.748Z,96296.59
2018-09-12T19:24:56.506Z,96305.88
2018-09-12T19:27:27.481Z,96342.77
2018-09-12T19:29:58.004Z,96356.06
2018-09-12T19:32:29.398Z,96352.97
2018-09-12T19:34:59.547Z,96354.06
2018-09-12T19:37:32.462Z,96364.97
2018-09-12T19:40:03.362Z,96371.54
2018-09-12T19:42:35.481Z,96374.11
2018-09-12T19:45:05.813Z,96387.77
2018-09-12T19:47:35.319Z,96386.22
2018-09-12T19:50:04.660Z,96387.97
2018-09-12T19:52:34.384Z,96395.11
2018-09-12T19:55:04.386Z,96401.34
2018-09-12T19:57:43.250Z,96413.94
2018-09-12T20:00:27.507Z,96424.47
2018-09-12T20:03:00.240Z,96427.97
2018-09-12T20:05:31.879Z,96430.70
2018-09-12T20:08:05.131Z,96450.63
2018-09-12T20:10:36.223Z,96453.98
2018-09-12T20:13:07.487Z,96454.70
2018-09-12T20:15:39.394Z,96459.58
2018-09-12T20:18:16.585Z,96472.78
2018-09-12T20:20:49.136Z,96468.72
2018-09-12T20:23:20.611Z,96472.09
2018-09-12T20:25:52.892Z,96470.44
2018-09-12T20:28:24.737Z,96472.09
2018-09-12T20:31:00.550Z,96477.36
2018-09-12T20:33:32.393Z,96494.46
2018-09-12T20:36:03.395Z,96485.22
2018-09-12T20:38:35.283Z,96484.77
2018-09-12T20:41:05.195Z,96490.23
2018-09-12T20:43:37.136Z,96494.69
2018-09-12T20:46:07.553Z,96494.47
2018-09-12T20:48:38.589Z,96497.69
2018-09-12T20:51:10.392Z,96500.61
2018-09-12T20:53:41.045Z,96503.06
2018-09-12T20:56:10.409Z,96506.19
2018-09-12T20:58:41.389Z,96502.96
2018-09-12T21:01:10.689Z,96507.12
2018-09-12T21:03:41.242Z,96503.91
2018-09-12T21:06:19.347Z,96515.69
2018-09-12T21:08:48.641Z,96506.35
2018-09-12T21:11:19.843Z,96506.35
2018-09-12T21:13:50.566Z,96512.47
2018-09-12T21:16:20.965Z,96505.81
2018-09-12T21:18:55.454Z,96506.47
2018-09-12T21:21:24.819Z,96505.44
2018-09-12T21:23:55.552Z,96509.43
2018-09-12T21:26:28.396Z,96502.19
2018-09-12T21:28:58.215Z,96502.19
2018-09-12T21:31:30.051Z,96507.34
2018-09-12T21:34:01.616Z,96509.94
2018-09-12T21:36:33.395Z,96505.36
2018-09-12T21:39:04.370Z,96502.34
2018-09-12T21:41:37.319Z,96509.62
2018-09-12T21:44:08.659Z,96512.48
2018-09-12T21:46:40.820Z,96510.87
2018-09-12T21:49:12.098Z,96513.33
2018-09-12T21:51:49.091Z,96510.23
2018-09-12T21:54:21.283Z,96504.23
2018-09-12T21:56:54.314Z,96500.86
2018-09-12T21:59:26.374Z,96495.34
2018-09-12T22:01:56.615Z,96491.29
2018-09-12T22:04:27.312Z,96494.67
2018-09-12T22:06:59.528Z,96484.81
2018-09-12T22:09:28.843Z,96473.09
2018-09-12T22:11:59.520Z,96468.27
2018-09-12T22:14:30.295Z,96468.88
2018-09-12T22:17:00.253Z,96469.00
2018-09-12T22:19:29.560Z,96469.67
2018-09-12T22:21:58.885Z,96475.75
2018-09-12T22:24:28.219Z,96478.52
2018-09-12T22:26:59.562Z,96462.81
2018-09-12T22:29:29.615Z,96456.59
2018-09-12T22:31:58.939Z,96460.03
2018-09-12T22:34:28.235Z,96463.63
2018-09-12T22:37:00.927Z,96455.17
2018-09-12T22:39:30.276Z,96447.15
2018-09-12T22:41:59.572Z,96439.06
2018-09-12T22:44:28.902Z,96439.41
2018-09-12T22:47:00.052Z,96442.95
2018-09-12T22:49:29.381Z,96441.69
2018-09-12T22:52:00.112Z,96444.16
2018-09-12T22:54:31.157Z,96437.45
2018-09-12T22:57:01.071Z,96432.66
2018-09-12T22:59:30.954Z,96429.95
2018-09-12T23:02:00.237Z,96435.06
2018-09-12T23:04:32.572Z,96436.21
2018-09-12T23:07:03.144Z,96433.16
2018-09-12T23:09:32.496Z,96432.68
2018-09-12T23:12:04.686Z,96428.45
2018-09-12T23:14:34.919Z,96423.57
2018-09-12T23:17:04.317Z,96423.83
2018-09-12T23:19:34.209Z,96423.28
2018-09-12T23:22:03.525Z,96424.32
2018-09-12T23:24:33.230Z,96426.30
2018-09-12T23:27:02.574Z,96425.52
2018-09-12T23:29:33.469Z,96420.23
2018-09-12T23:32:02.775Z,96427.91
2018-09-12T23:34:32.064Z,96435.30
2018-09-12T23:37:02.314Z,96429.42
2018-09-12T23:39:32.010Z,96427.30
2018-09-12T23:42:02.149Z,96434.86
2018-09-12T23:44:32.090Z,96432.97
2018-09-12T23:47:01.398Z,96431.64
2018-09-12T23:49:31.531Z,96431.80
2018-09-12T23:52:01.199Z,96427.75
2018-09-12T23:54:32.009Z,96426.77
2018-09-12T23:57:01.362Z,96428.94
2018-09-12T23:59:32.194Z,96417.75
